Time;durP1;ratioP1;P1;durP2;ratioP2;P2;SDS_P1;SDS_P2;PMS_P1;PMS_P2;Temp;Humidity;BMP_temperature;BMP_pressure;BME280_temperature;BME280_humidity;BME280_pressure;Samples;Min_cycle;Max_cycle;Signal;HPM_P1;HPM_P2
2024/04/07 00:01:49;;;;;;;5.68;2.85;;;18.20;99.90;;;;;;5012912;28;20223;-73
2024/04/07 00:04:15;;;;;;;6.50;3.13;;;18.20;99.90;;;;;;5023875;28;20714;-74
2024/04/07 00:06:41;;;;;;;3.25;2.40;;;18.20;99.90;;;;;;5035203;28;20284;-75
2024/04/07 00:09:06;;;;;;;4.40;2.67;;;18.20;99.90;;;;;;4998388;28;20182;-74
2024/04/07 00:11:32;;;;;;;10.25;2.83;;;18.20;99.90;;;;;;5020367;28;20190;-73
2024/04/07 00:14:00;;;;;;;8.75;3.03;;;18.20;99.90;;;;;;5031219;28;20181;-75
2024/04/07 00:16:25;;;;;;;9.15;3.35;;;18.10;99.90;;;;;;5031730;28;20185;-74
2024/04/07 00:18:51;;;;;;;7.10;3.35;;;18.00;99.90;;;;;;5017068;28;20667;-73
2024/04/07 00:21:17;;;;;;;7.30;3.15;;;18.00;99.90;;;;;;5023346;28;20239;-74
2024/04/07 00:23:42;;;;;;;4.65;2.90;;;18.00;99.90;;;;;;5031517;28;20239;-74
2024/04/07 00:26:08;;;;;;;6.63;2.75;;;18.00;99.90;;;;;;5033390;28;20201;-73
2024/04/07 00:28:34;;;;;;;5.45;2.70;;;18.00;99.90;;;;;;5044374;28;20240;-73
2024/04/07 00:31:01;;;;;;;4.60;3.40;;;18.00;99.90;;;;;;5037719;28;20204;-74
2024/04/07 00:33:27;;;;;;;4.45;3.08;;;18.00;99.90;;;;;;5010423;28;20209;-75
2024/04/07 00:35:58;;;;;;;3.85;2.78;;;18.00;99.90;;;;;;5034870;28;20451;-74
2024/04/07 00:38:24;;;;;;;4.82;3.20;;;18.00;99.90;;;;;;5041655;28;20191;-76
2024/04/07 00:40:53;;;;;;;5.07;2.90;;;17.90;99.90;;;;;;5044914;28;20189;-74
2024/04/07 00:43:23;;;;;;;4.65;2.63;;;17.90;99.90;;;;;;5034172;28;20212;-73
2024/04/07 00:45:49;;;;;;;4.38;2.88;;;17.90;99.90;;;;;;5020845;28;20744;-73
2024/04/07 00:48:17;;;;;;;4.38;1.92;;;17.90;99.90;;;;;;5037428;28;20184;-74
2024/04/07 00:50:47;;;;;;;3.75;2.17;;;17.90;99.90;;;;;;5024796;28;20185;-75
2024/04/07 00:53:14;;;;;;;1.88;1.40;;;17.90;99.90;;;;;;5003968;28;20223;-74
2024/04/07 00:55:41;;;;;;;1.77;1.17;;;17.90;99.90;;;;;;5025905;28;20655;-74
2024/04/07 00:58:12;;;;;;;1.77;1.20;;;17.90;99.90;;;;;;5025539;28;20185;-73
2024/04/07 01:00:38;;;;;;;2.30;1.58;;;18.00;99.90;;;;;;5019923;28;20180;-74
2024/04/07 01:03:04;;;;;;;3.15;1.85;;;18.00;99.90;;;;;;5038076;28;20261;-75
2024/04/07 01:05:50;;;;;;;3.17;2.10;;;18.10;99.90;;;;;;5019266;28;20235;-74
2024/04/07 01:08:16;;;;;;;2.50;1.85;;;18.10;99.90;;;;;;5010929;28;20193;-73
2024/04/07 01:10:43;;;;;;;2.50;1.38;;;18.10;99.90;;;;;;5016535;28;20627;-73
2024/04/07 01:13:09;;;;;;;2.42;1.65;;;18.10;99.90;;;;;;5033401;28;20596;-74
2024/04/07 01:15:37;;;;;;;3.60;1.38;;;18.10;99.90;;;;;;5032091;28;20184;-73
2024/04/07 01:18:03;;;;;;;2.80;1.38;;;18.10;99.90;;;;;;5001899;28;20279;-74
2024/04/07 01:20:31;;;;;;;3.90;1.50;;;18.10;99.90;;;;;;5029819;28;20194;-74
2024/04/07 01:22:57;;;;;;;1.95;1.35;;;18.10;99.90;;;;;;5022832;28;20704;-75
2024/04/07 01:25:23;;;;;;;3.20;1.33;;;18.10;99.90;;;;;;5025153;28;20208;-75
2024/04/07 01:27:56;;;;;;;2.20;1.38;;;18.10;99.90;;;;;;5030781;28;20635;-74
2024/04/07 01:30:23;;;;;;;2.17;1.40;;;18.10;99.90;;;;;;5019591;28;20193;-74
2024/04/07 01:32:49;;;;;;;3.20;1.30;;;18.10;99.90;;;;;;5020342;28;20196;-72
2024/04/07 01:35:15;;;;;;;2.40;1.27;;;18.10;99.90;;;;;;5025802;28;20177;-74
2024/04/07 01:37:41;;;;;;;1.48;1.20;;;18.10;99.90;;;;;;5015340;28;20539;-74
2024/04/07 01:40:09;;;;;;;1.95;1.30;;;18.10;99.90;;;;;;5033311;28;20169;-74
2024/04/07 01:42:35;;;;;;;2.10;1.40;;;18.10;99.90;;;;;;5029714;28;20192;-73
2024/04/07 01:45:01;;;;;;;2.10;1.33;;;18.00;99.90;;;;;;4996210;28;20235;-75
2024/04/07 01:47:27;;;;;;;1.45;1.30;;;18.00;99.90;;;;;;5029890;28;20679;-75
2024/04/07 01:49:52;;;;;;;1.50;1.40;;;18.00;99.90;;;;;;5035804;28;20234;-73
2024/04/07 01:52:18;;;;;;;4.63;1.42;;;17.90;99.90;;;;;;5028304;28;20552;-74
2024/04/07 01:54:44;;;;;;;2.53;1.33;;;17.90;99.90;;;;;;5029590;28;20177;-72
2024/04/07 01:57:11;;;;;;;1.98;1.52;;;17.90;99.90;;;;;;5032431;28;20228;-73
2024/04/07 01:59:36;;;;;;;2.50;1.30;;;17.80;99.90;;;;;;5033622;28;20341;-74
2024/04/07 02:02:02;;;;;;;2.78;1.70;;;17.80;99.90;;;;;;5033745;28;20204;-73
2024/04/07 02:04:28;;;;;;;2.03;1.35;;;17.70;99.90;;;;;;5032750;28;20646;-75
2024/04/07 02:06:54;;;;;;;1.35;1.15;;;17.70;99.90;;;;;;5016728;28;20206;-73
2024/04/07 02:09:20;;;;;;;1.90;1.17;;;17.60;99.90;;;;;;5001076;28;20181;-74
2024/04/07 02:11:47;;;;;;;2.28;1.45;;;17.50;99.90;;;;;;5021815;28;20566;-74
2024/04/07 02:14:13;;;;;;;1.73;1.38;;;17.50;99.90;;;;;;5022291;28;20185;-74
2024/04/07 02:16:38;;;;;;;3.05;1.20;;;17.40;99.90;;;;;;5021825;28;20214;-73
2024/04/07 02:19:04;;;;;;;2.33;1.40;;;17.40;99.90;;;;;;5022972;28;20216;-73
2024/04/07 02:21:29;;;;;;;2.35;1.40;;;17.30;99.90;;;;;;5020301;28;20209;-73
2024/04/07 02:23:55;;;;;;;1.30;1.20;;;17.30;99.90;;;;;;5016260;28;20653;-74
2024/04/07 02:26:21;;;;;;;2.30;1.55;;;17.30;99.90;;;;;;5034083;28;20208;-74
2024/04/07 02:28:47;;;;;;;1.40;0.98;;;17.30;99.90;;;;;;5001792;28;20204;-74
2024/04/07 02:31:13;;;;;;;1.80;1.67;;;17.20;99.90;;;;;;5026716;28;20184;-74
2024/04/07 02:33:39;;;;;;;1.20;1.10;;;17.20;99.90;;;;;;5030257;28;20215;-74
2024/04/07 02:36:06;;;;;;;1.77;1.38;;;17.30;99.90;;;;;;5006174;28;20276;-75
2024/04/07 02:38:32;;;;;;;2.17;1.35;;;17.20;99.90;;;;;;5024412;28;20264;-74
2024/04/07 02:40:58;;;;;;;2.85;1.42;;;17.20;99.90;;;;;;5039580;28;20177;-74
2024/04/07 02:43:24;;;;;;;3.88;1.38;;;17.20;99.90;;;;;;5027232;28;20201;-73
2024/04/07 02:48:34;;;;;;;1.10;1.00;;;17.10;99.90;;;;;;5023776;28;20560;-74
2024/04/07 02:50:59;;;;;;;1.30;1.20;;;17.10;99.90;;;;;;5032484;28;20200;-73
2024/04/07 02:53:25;;;;;;;4.50;1.48;;;17.00;99.90;;;;;;5031888;28;20297;-74
2024/04/07 02:55:51;;;;;;;3.35;1.30;;;17.00;99.90;;;;;;5026380;28;20223;-73
2024/04/07 02:58:16;;;;;;;3.80;1.52;;;17.00;99.90;;;;;;5027081;28;20211;-73
2024/04/07 03:00:42;;;;;;;1.52;1.20;;;17.00;99.90;;;;;;5005778;28;20280;-74
2024/04/07 03:03:08;;;;;;;1.60;1.25;;;17.00;99.90;;;;;;5033292;28;20204;-73
2024/04/07 03:05:38;;;;;;;1.80;1.15;;;17.00;99.90;;;;;;5024865;28;20219;-75
2024/04/07 03:08:07;;;;;;;2.00;1.60;;;16.90;99.90;;;;;;5011065;28;20200;-74
2024/04/07 03:10:33;;;;;;;3.75;1.60;;;16.90;99.90;;;;;;5029205;28;20196;-74
2024/04/07 03:12:59;;;;;;;2.63;1.42;;;16.90;99.90;;;;;;5029417;28;20223;-74
2024/04/07 03:15:26;;;;;;;1.75;1.20;;;16.90;99.90;;;;;;5015018;28;20243;-74
2024/04/07 03:17:52;;;;;;;3.22;1.42;;;17.00;99.90;;;;;;5010652;28;20204;-74
2024/04/07 03:20:17;;;;;;;2.78;1.58;;;17.00;99.90;;;;;;5027886;28;20647;-75
2024/04/07 03:22:43;;;;;;;3.53;1.42;;;16.90;99.90;;;;;;5019243;28;20197;-73
2024/04/07 03:25:08;;;;;;;1.73;1.33;;;16.90;99.90;;;;;;5025806;28;20184;-73
2024/04/07 03:27:34;;;;;;;1.67;1.10;;;16.90;99.90;;;;;;5010775;28;20205;-73
2024/04/07 03:30:00;;;;;;;2.92;1.50;;;16.90;99.90;;;;;;5029579;28;20188;-74
2024/04/07 03:32:25;;;;;;;5.05;1.30;;;16.80;99.90;;;;;;5043401;28;20200;-74
2024/04/07 03:34:51;;;;;;;3.85;1.42;;;16.70;99.90;;;;;;5035363;28;20199;-74
2024/04/07 03:37:17;;;;;;;2.47;1.20;;;16.70;99.90;;;;;;5023960;28;20192;-73
2024/04/07 03:39:42;;;;;;;2.45;1.20;;;16.70;99.90;;;;;;4998031;28;20216;-73
2024/04/07 03:42:08;;;;;;;2.05;1.40;;;16.70;99.90;;;;;;5033847;28;20275;-75
2024/04/07 03:44:34;;;;;;;1.20;1.10;;;16.70;99.90;;;;;;5010324;28;20219;-74
2024/04/07 03:47:00;;;;;;;2.45;1.17;;;16.70;99.90;;;;;;5027865;28;20235;-74
2024/04/07 03:49:25;;;;;;;2.03;1.30;;;16.70;99.90;;;;;;5009918;28;20255;-73
2024/04/07 03:51:52;;;;;;;1.33;1.23;;;16.80;99.90;;;;;;5031305;28;20211;-73
2024/04/07 03:54:18;;;;;;;1.95;1.10;;;16.80;99.90;;;;;;5022414;28;20199;-74
2024/04/07 03:56:44;;;;;;;1.98;1.10;;;16.80;99.90;;;;;;5024864;28;20193;-74
2024/04/07 03:59:10;;;;;;;1.10;1.00;;;16.80;99.90;;;;;;5034531;28;20650;-73
2024/04/07 04:01:39;;;;;;;2.05;1.27;;;16.80;99.90;;;;;;5006642;28;20195;-73
2024/04/07 04:04:06;;;;;;;1.35;1.25;;;16.80;99.90;;;;;;5034076;28;20195;-74
2024/04/07 04:06:31;;;;;;;1.73;1.52;;;16.90;99.90;;;;;;5028992;28;20239;-72
2024/04/07 04:08:57;;;;;;;2.97;1.25;;;16.90;99.90;;;;;;5015052;28;20208;-74
2024/04/07 04:11:23;;;;;;;1.83;1.30;;;16.90;99.90;;;;;;5027264;28;20186;-74
2024/04/07 04:13:50;;;;;;;1.95;1.30;;;16.90;99.90;;;;;;5030067;28;20220;-74
2024/04/07 04:16:18;;;;;;;2.13;1.58;;;16.90;99.90;;;;;;5030150;28;20177;-75
2024/04/07 04:18:44;;;;;;;3.72;1.48;;;16.90;99.90;;;;;;5018600;28;20189;-74
2024/04/07 04:21:11;;;;;;;1.58;1.20;;;16.90;99.90;;;;;;5034947;28;20250;-74
2024/04/07 04:23:38;;;;;;;2.20;1.05;;;16.80;99.90;;;;;;5034507;28;20220;-73
2024/04/07 04:26:05;;;;;;;2.50;1.40;;;16.80;99.90;;;;;;5028772;28;20220;-74
2024/04/07 04:28:31;;;;;;;2.22;1.30;;;16.80;99.90;;;;;;5030739;28;20184;-74
2024/04/07 04:31:00;;;;;;;2.10;1.70;;;16.80;99.90;;;;;;5019895;28;20219;-74
2024/04/07 04:33:27;;;;;;;3.50;1.35;;;16.80;99.90;;;;;;5017939;28;20223;-74
2024/04/07 04:35:53;;;;;;;2.53;1.70;;;16.80;99.90;;;;;;5035061;28;20663;-74
2024/04/07 04:38:18;;;;;;;2.13;1.30;;;16.80;99.90;;;;;;5035488;28;20250;-74
2024/04/07 04:40:54;;;;;;;3.55;1.75;;;16.80;99.90;;;;;;5035346;28;20177;-74
2024/04/07 04:43:21;;;;;;;2.55;1.30;;;16.80;99.90;;;;;;5034799;28;20246;-72
2024/04/07 04:45:49;;;;;;;3.80;1.38;;;16.70;99.90;;;;;;5005105;28;20216;-74
2024/04/07 04:48:15;;;;;;;1.75;1.40;;;16.70;99.90;;;;;;5009815;28;20270;-74
2024/04/07 04:50:50;;;;;;;2.83;1.55;;;16.70;99.90;;;;;;5025662;28;20188;-74
2024/04/07 04:53:16;;;;;;;2.47;1.30;;;16.70;99.90;;;;;;5043637;28;20239;-74
2024/04/07 04:55:41;;;;;;;1.90;1.48;;;16.70;99.90;;;;;;5043915;28;20185;-74
2024/04/07 04:58:07;;;;;;;1.48;1.33;;;16.70;99.90;;;;;;5044532;28;20239;-73
2024/04/07 05:00:32;;;;;;;4.05;1.60;;;16.80;99.90;;;;;;5041115;28;20195;-73
2024/04/07 05:02:58;;;;;;;2.00;1.40;;;16.80;99.90;;;;;;5006540;28;20205;-73
2024/04/07 05:05:26;;;;;;;2.35;1.50;;;16.80;99.90;;;;;;5021425;28;20230;-73
2024/04/07 05:07:52;;;;;;;2.58;1.20;;;16.80;99.90;;;;;;5025271;28;20193;-74
2024/04/07 05:10:18;;;;;;;3.75;1.50;;;16.80;99.90;;;;;;5034940;28;20187;-73
2024/04/07 05:12:44;;;;;;;2.50;1.10;;;16.90;99.90;;;;;;5017689;28;20287;-73
2024/04/07 05:15:09;;;;;;;1.63;1.35;;;16.90;99.90;;;;;;5015294;28;20714;-74
2024/04/07 05:17:35;;;;;;;2.00;1.38;;;16.90;99.90;;;;;;5026178;28;20271;-74
2024/04/07 05:20:00;;;;;;;2.50;1.60;;;16.90;99.90;;;;;;5020613;28;20189;-72
2024/04/07 05:22:27;;;;;;;2.42;1.40;;;17.00;99.90;;;;;;5027146;28;20226;-72
2024/04/07 05:24:52;;;;;;;2.08;1.60;;;17.00;99.90;;;;;;5010865;28;20238;-73
2024/04/07 05:27:18;;;;;;;1.92;1.25;;;17.00;99.90;;;;;;5033790;28;20594;-73
2024/04/07 05:29:50;;;;;;;2.13;1.55;;;17.10;99.90;;;;;;5010078;28;20224;-73
2024/04/07 05:32:15;;;;;;;1.90;1.30;;;17.30;99.90;;;;;;5014676;28;20682;-73
2024/04/07 05:34:45;;;;;;;2.17;1.60;;;17.40;99.90;;;;;;5015433;28;20276;-74
2024/04/07 05:37:11;;;;;;;2.20;1.50;;;17.70;99.90;;;;;;5003061;28;20306;-74
2024/04/07 05:39:36;;;;;;;2.03;1.33;;;18.10;99.90;;;;;;5011138;28;20228;-74
2024/04/07 05:42:02;;;;;;;4.18;1.80;;;18.40;99.90;;;;;;5002414;28;20224;-73
2024/04/07 05:44:30;;;;;;;2.28;1.48;;;18.80;99.90;;;;;;5015241;28;20704;-74
2024/04/07 05:46:55;;;;;;;4.22;1.83;;;19.20;99.90;;;;;;5028251;28;20583;-73
2024/04/07 05:49:21;;;;;;;1.98;1.77;;;19.60;99.90;;;;;;4998775;28;20188;-74
2024/04/07 05:51:46;;;;;;;2.65;1.10;;;20.10;99.90;;;;;;5025166;28;20188;-74
2024/04/07 05:54:12;;;;;;;1.92;1.40;;;20.60;99.90;;;;;;5031500;28;20223;-73
2024/04/07 05:56:37;;;;;;;2.65;1.88;;;21.00;99.90;;;;;;5000018;28;20176;-73
2024/04/07 05:59:03;;;;;;;2.42;1.40;;;21.40;99.90;;;;;;5036612;28;20375;-74
2024/04/07 06:01:29;;;;;;;1.98;1.58;;;21.90;99.90;;;;;;5020343;28;20189;-74
2024/04/07 06:03:54;;;;;;;1.70;1.55;;;22.60;99.90;;;;;;5009055;28;20196;-74
2024/04/07 06:06:20;;;;;;;1.52;1.42;;;23.40;99.90;;;;;;5025092;28;20296;-75
2024/04/07 06:08:45;;;;;;;3.33;1.50;;;23.80;99.90;;;;;;5033055;28;20184;-74
2024/04/07 06:11:11;;;;;;;2.20;1.25;;;24.00;99.90;;;;;;5027847;28;20200;-74
2024/04/07 06:13:36;;;;;;;1.95;1.30;;;24.50;99.30;;;;;;5039024;28;20204;-74
2024/04/07 06:16:02;;;;;;;3.03;1.40;;;24.50;99.10;;;;;;5015453;28;20196;-74
2024/04/07 06:18:28;;;;;;;3.65;2.00;;;24.90;97.70;;;;;;5023992;28;20271;-76
2024/04/07 06:20:53;;;;;;;4.03;1.55;;;25.20;96.50;;;;;;5022564;28;20686;-74
2024/04/07 06:23:20;;;;;;;3.25;1.50;;;25.10;97.00;;;;;;5032599;28;20289;-74
2024/04/07 06:25:47;;;;;;;3.50;1.52;;;24.90;96.60;;;;;;5033816;28;20222;-74
2024/04/07 06:28:13;;;;;;;1.98;1.65;;;24.30;96.70;;;;;;5023333;28;20181;-74
2024/04/07 06:30:39;;;;;;;3.42;1.90;;;23.20;97.70;;;;;;5042097;28;20205;-74
2024/04/07 06:33:04;;;;;;;3.05;1.98;;;22.10;99.70;;;;;;5033811;28;20701;-75
2024/04/07 06:35:31;;;;;;;2.00;1.33;;;21.20;99.90;;;;;;5014463;28;20599;-75
2024/04/07 06:37:56;;;;;;;3.15;2.00;;;20.60;99.90;;;;;;5017529;28;20712;-74
2024/04/07 06:40:22;;;;;;;2.97;1.77;;;20.20;99.90;;;;;;5025433;28;20192;-75
2024/04/07 06:42:47;;;;;;;4.30;1.60;;;20.10;99.90;;;;;;5033478;28;20559;-74
2024/04/07 06:45:13;;;;;;;3.15;1.60;;;19.80;99.90;;;;;;5009071;28;20197;-76
2024/04/07 06:47:39;;;;;;;3.85;1.52;;;19.70;99.90;;;;;;5027526;28;20239;-75
2024/04/07 06:50:05;;;;;;;2.78;1.25;;;19.70;99.90;;;;;;5017134;28;20184;-75
2024/04/07 06:52:31;;;;;;;1.63;1.33;;;19.70;99.90;;;;;;5048316;22;20232;-70
2024/04/07 06:54:56;;;;;;;1.85;1.63;;;19.80;99.90;;;;;;5032437;28;20183;-70
2024/04/07 06:57:22;;;;;;;3.53;1.67;;;19.70;99.90;;;;;;5017912;28;20198;-71
2024/04/07 06:59:51;;;;;;;4.32;2.38;;;19.70;99.90;;;;;;5041675;28;20198;-70
2024/04/07 07:02:18;;;;;;;2.55;1.65;;;19.70;99.90;;;;;;5029382;28;20753;-72
2024/04/07 07:04:43;;;;;;;2.80;1.83;;;19.80;99.90;;;;;;5046864;28;20214;-71
2024/04/07 07:07:09;;;;;;;1.73;1.20;;;20.10;99.90;;;;;;5050739;28;20224;-71
2024/04/07 07:09:35;;;;;;;2.13;1.40;;;20.30;99.90;;;;;;5031755;28;20197;-71
2024/04/07 07:12:00;;;;;;;2.13;1.83;;;20.50;99.90;;;;;;5041800;28;20206;-71
2024/04/07 07:14:26;;;;;;;4.57;2.17;;;20.60;99.90;;;;;;5032958;28;20314;-72
2024/04/07 07:16:52;;;;;;;2.45;1.58;;;20.80;99.90;;;;;;5048056;28;20179;-70
2024/04/07 07:19:19;;;;;;;2.28;1.58;;;21.00;99.90;;;;;;5055606;28;20248;-71
2024/04/07 07:21:44;;;;;;;2.60;2.00;;;21.30;99.90;;;;;;5048899;28;20203;-71
2024/04/07 07:24:10;;;;;;;3.63;1.90;;;21.30;99.90;;;;;;5023223;28;20208;-71
2024/04/07 07:26:36;;;;;;;3.17;1.58;;;21.50;99.90;;;;;;5039295;28;20202;-71
2024/04/07 07:29:03;;;;;;;3.53;1.70;;;21.60;99.90;;;;;;5031423;28;20176;-71
2024/04/07 07:31:29;;;;;;;1.67;1.45;;;21.70;99.90;;;;;;5025335;28;20547;-71
2024/04/07 07:33:55;;;;;;;2.80;1.50;;;21.80;99.90;;;;;;5032694;28;20208;-71
2024/04/07 07:36:21;;;;;;;5.88;1.67;;;21.90;99.90;;;;;;5033496;28;20234;-71
2024/04/07 07:38:47;;;;;;;7.22;1.67;;;21.70;99.90;;;;;;5038422;28;20192;-71
2024/04/07 07:41:13;;;;;;;2.13;1.42;;;21.60;99.90;;;;;;5019272;28;20637;-71
2024/04/07 07:43:39;;;;;;;4.43;1.70;;;21.60;99.90;;;;;;5040941;28;20227;-72
2024/04/07 07:46:04;;;;;;;4.10;1.52;;;21.50;99.90;;;;;;5041093;28;20212;-72
2024/04/07 07:48:30;;;;;;;3.15;1.40;;;21.40;99.90;;;;;;5038909;28;20180;-73
2024/04/07 07:50:55;;;;;;;1.70;1.60;;;21.30;99.90;;;;;;5026470;28;20291;-72
2024/04/07 07:53:21;;;;;;;3.25;1.25;;;21.10;99.90;;;;;;5027961;28;20302;-72
2024/04/07 07:55:47;;;;;;;4.80;1.80;;;21.00;99.90;;;;;;5042320;28;20188;-71
2024/04/07 07:58:12;;;;;;;2.38;2.05;;;20.80;99.90;;;;;;5043931;28;20188;-72
2024/04/07 08:00:38;;;;;;;3.88;1.50;;;20.70;99.90;;;;;;5035431;28;20188;-72
2024/04/07 08:03:04;;;;;;;3.25;1.67;;;20.60;99.90;;;;;;5038809;28;20563;-72
2024/04/07 08:05:30;;;;;;;3.92;1.77;;;20.40;99.90;;;;;;5041530;28;20181;-72
2024/04/07 08:07:55;;;;;;;4.15;2.22;;;20.50;99.90;;;;;;5033276;28;20212;-73
2024/04/07 08:10:21;;;;;;;3.42;1.92;;;20.70;99.90;;;;;;5018235;28;20180;-72
2024/04/07 08:12:48;;;;;;;4.93;1.88;;;20.90;99.90;;;;;;5040430;28;20205;-72
2024/04/07 08:15:14;;;;;;;2.42;1.42;;;21.00;99.90;;;;;;5032793;28;20653;-72
2024/04/07 08:17:40;;;;;;;3.65;1.83;;;21.10;99.90;;;;;;5037492;28;20266;-72
2024/04/07 08:20:07;;;;;;;5.43;2.00;;;21.30;99.90;;;;;;5032119;28;20193;-72
2024/04/07 08:22:32;;;;;;;6.13;2.40;;;21.70;99.90;;;;;;5032273;28;20215;-72
2024/04/07 08:24:58;;;;;;;6.38;1.40;;;22.30;99.90;;;;;;5031534;28;20183;-72
2024/04/07 08:27:23;;;;;;;2.97;1.55;;;22.80;99.90;;;;;;5040302;28;20235;-71
2024/04/07 08:29:49;;;;;;;3.92;1.40;;;23.40;99.90;;;;;;5031049;28;20199;-72
2024/04/07 08:32:14;;;;;;;2.45;1.30;;;23.90;99.90;;;;;;5040070;28;20212;-72
2024/04/07 08:34:40;;;;;;;6.72;1.70;;;24.30;99.90;;;;;;5031937;28;20231;-72
2024/04/07 08:37:07;;;;;;;3.53;1.38;;;24.60;98.20;;;;;;5017786;28;20201;-71
2024/04/07 08:39:33;;;;;;;3.97;1.40;;;24.80;97.80;;;;;;5062342;28;20200;-72
2024/04/07 08:42:00;;;;;;;4.90;1.40;;;25.10;97.20;;;;;;5040037;28;20680;-72
2024/04/07 08:44:27;;;;;;;3.10;1.67;;;25.10;96.40;;;;;;5044983;28;20206;-72
2024/04/07 08:46:53;;;;;;;3.22;1.42;;;25.00;95.80;;;;;;5056400;28;20210;-72
2024/04/07 08:49:20;;;;;;;2.67;1.25;;;25.00;95.70;;;;;;5038183;28;20597;-74
2024/04/07 08:51:48;;;;;;;3.13;1.33;;;25.00;95.20;;;;;;5045628;28;20700;-73
2024/04/07 08:54:16;;;;;;;2.97;1.45;;;25.10;95.50;;;;;;5049931;28;20223;-73
2024/04/07 08:56:44;;;;;;;1.98;1.13;;;25.40;96.60;;;;;;5053160;28;20605;-71
2024/04/07 08:59:13;;;;;;;5.68;1.55;;;25.50;95.70;;;;;;5039615;28;20191;-72
2024/04/07 09:01:44;;;;;;;2.95;1.27;;;25.50;94.20;;;;;;5026632;28;20217;-72
2024/04/07 09:04:11;;;;;;;3.50;1.42;;;25.50;94.90;;;;;;5036286;28;20232;-72
2024/04/07 09:06:37;;;;;;;1.02;0.93;;;25.70;95.60;;;;;;5034323;28;20227;-72
2024/04/07 09:09:04;;;;;;;7.78;1.63;;;25.90;95.80;;;;;;5042731;28;20259;-72
2024/04/07 09:11:35;;;;;;;3.28;1.13;;;26.10;93.80;;;;;;5044756;28;20180;-72
2024/04/07 09:14:01;;;;;;;4.00;1.15;;;26.20;94.80;;;;;;5039035;28;20278;-72
2024/04/07 09:16:27;;;;;;;2.75;1.50;;;26.20;93.70;;;;;;5035034;28;20189;-72
2024/04/07 09:18:53;;;;;;;3.75;1.50;;;26.40;94.70;;;;;;5044458;28;20203;-73
2024/04/07 09:21:19;;;;;;;2.80;1.38;;;26.40;92.80;;;;;;5032342;28;20188;-71
2024/04/07 09:23:46;;;;;;;5.15;1.40;;;26.50;93.40;;;;;;5052061;28;20207;-72
2024/04/07 09:26:12;;;;;;;8.35;1.33;;;26.50;91.30;;;;;;5052188;28;20234;-74
2024/04/07 09:28:39;;;;;;;2.13;1.40;;;26.50;92.50;;;;;;5040048;28;20209;-71
2024/04/07 09:31:04;;;;;;;4.57;1.83;;;26.30;93.70;;;;;;5044734;28;20192;-72
2024/04/07 09:33:31;;;;;;;3.10;1.58;;;26.20;93.20;;;;;;5051999;28;20207;-72
2024/04/07 09:35:59;;;;;;;5.57;1.58;;;26.00;92.70;;;;;;5058635;28;20184;-73
2024/04/07 09:38:26;;;;;;;2.97;1.20;;;25.90;93.00;;;;;;5059135;28;20210;-72
2024/04/07 09:40:56;;;;;;;4.15;1.25;;;25.80;92.60;;;;;;5050819;28;20189;-71
2024/04/07 09:43:27;;;;;;;8.52;1.83;;;25.60;91.90;;;;;;5051826;28;20207;-72
2024/04/07 09:45:53;;;;;;;5.93;2.45;;;25.50;93.10;;;;;;5040940;28;20211;-71
2024/04/07 09:48:20;;;;;;;5.60;1.67;;;25.50;94.20;;;;;;5042216;28;20246;-71
2024/04/07 09:50:58;;;;;;;5.10;1.80;;;25.50;93.60;;;;;;5023019;28;20196;-72
2024/04/07 09:53:48;;;;;;;6.95;2.25;;;25.50;93.10;;;;;;5031134;28;20234;-72
2024/04/07 09:56:15;;;;;;;6.18;1.75;;;25.60;93.90;;;;;;5033799;28;20670;-71
2024/04/07 09:58:42;;;;;;;2.58;1.25;;;25.60;93.90;;;;;;5055190;28;20184;-71
2024/04/07 10:01:09;;;;;;;4.32;1.70;;;25.50;93.70;;;;;;5027143;28;20253;-71
2024/04/07 10:03:36;;;;;;;5.68;1.50;;;25.60;93.50;;;;;;5035985;28;20204;-71
2024/04/07 10:06:02;;;;;;;3.75;1.70;;;25.80;93.70;;;;;;5038157;28;20219;-72
2024/04/07 10:08:28;;;;;;;2.58;1.48;;;26.10;94.20;;;;;;5058172;28;20196;-72
2024/04/07 10:10:54;;;;;;;8.65;2.50;;;26.20;93.40;;;;;;5050000;28;20203;-71
2024/04/07 10:13:23;;;;;;;6.60;1.80;;;26.30;93.90;;;;;;5038791;28;20204;-71
2024/04/07 10:15:52;;;;;;;6.20;1.60;;;26.30;93.20;;;;;;5034169;28;20192;-71
2024/04/07 10:18:19;;;;;;;4.38;1.65;;;26.20;93.00;;;;;;5042072;28;20183;-72
2024/04/07 10:20:52;;;;;;;4.15;1.77;;;26.10;93.50;;;;;;5043456;28;20654;-71
2024/04/07 10:23:19;;;;;;;6.22;1.73;;;26.00;93.60;;;;;;5039387;28;20205;-72
2024/04/07 10:25:48;;;;;;;5.50;1.70;;;25.90;93.90;;;;;;5034245;28;20176;-72
2024/04/07 10:28:14;;;;;;;5.03;1.35;;;25.90;93.80;;;;;;5036245;28;20207;-70
2024/04/07 10:30:58;;;;;;;3.63;1.30;;;25.70;93.80;;;;;;5048517;28;20207;-71
2024/04/07 10:33:29;;;;;;;8.73;1.70;;;25.50;94.20;;;;;;5050415;28;20219;-70
2024/04/07 10:35:59;;;;;;;3.70;1.20;;;25.40;94.60;;;;;;5041990;28;20747;-71
2024/04/07 10:38:25;;;;;;;4.78;1.10;;;25.20;94.90;;;;;;5009640;28;20279;-72
2024/04/07 10:40:52;;;;;;;5.68;1.65;;;25.10;95.10;;;;;;5027405;28;20727;-71
2024/04/07 10:43:18;;;;;;;3.40;1.13;;;25.10;95.40;;;;;;5032115;28;20223;-71
2024/04/07 10:45:44;;;;;;;10.02;2.03;;;25.00;95.60;;;;;;5044317;28;20248;-71
2024/04/07 10:48:10;;;;;;;8.63;1.65;;;24.90;95.50;;;;;;5049226;28;20690;-72
2024/04/07 10:50:36;;;;;;;6.35;1.98;;;24.80;96.00;;;;;;5032749;28;20192;-72
2024/04/07 10:53:06;;;;;;;6.30;1.48;;;24.60;96.60;;;;;;5032934;28;20339;-71
2024/04/07 10:55:33;;;;;;;10.55;1.75;;;24.60;96.60;;;;;;5034328;28;20180;-72
2024/04/07 10:57:59;;;;;;;5.47;1.50;;;24.50;96.70;;;;;;5040123;28;20184;-72
2024/04/07 11:00:25;;;;;;;4.22;1.50;;;24.50;96.50;;;;;;5023846;28;20249;-72
2024/04/07 11:02:52;;;;;;;3.20;1.33;;;24.40;96.90;;;;;;5034007;28;20684;-72
2024/04/07 11:05:18;;;;;;;5.07;1.40;;;24.30;96.80;;;;;;5032964;28;20203;-71
2024/04/07 11:07:45;;;;;;;2.95;1.33;;;24.20;97.20;;;;;;5034987;28;20837;-72
2024/04/07 11:10:11;;;;;;;4.32;1.55;;;24.20;98.00;;;;;;5039029;28;20192;-72
2024/04/07 11:12:41;;;;;;;3.42;1.40;;;24.20;98.90;;;;;;5039853;28;20571;-73
2024/04/07 11:15:16;;;;;;;3.25;1.40;;;24.20;98.70;;;;;;5054538;28;20183;-72
2024/04/07 11:17:42;;;;;;;2.92;1.00;;;24.20;99.40;;;;;;5041848;28;20300;-72
2024/04/07 11:20:10;;;;;;;5.97;1.58;;;24.30;99.20;;;;;;5063877;28;20179;-72
2024/04/07 11:22:36;;;;;;;4.60;1.67;;;24.40;99.00;;;;;;5050371;28;20223;-73
2024/04/07 11:25:02;;;;;;;10.65;1.80;;;24.40;99.00;;;;;;5039007;28;20188;-71
2024/04/07 11:27:27;;;;;;;8.38;1.88;;;24.60;99.70;;;;;;5050581;28;20760;-71
2024/04/07 11:29:54;;;;;;;6.63;1.73;;;24.70;99.60;;;;;;5041548;28;20185;-72
2024/04/07 11:32:19;;;;;;;4.47;1.40;;;24.90;99.40;;;;;;5035016;28;20228;-73
2024/04/07 11:34:45;;;;;;;2.17;1.23;;;25.10;98.90;;;;;;5034527;28;20234;-73
2024/04/07 11:37:10;;;;;;;4.28;1.70;;;25.10;99.10;;;;;;5033825;28;20181;-71
2024/04/07 11:39:36;;;;;;;3.17;1.20;;;25.20;98.50;;;;;;5041041;28;20257;-71
2024/04/07 11:42:05;;;;;;;4.43;1.60;;;25.40;98.80;;;;;;5023444;28;20193;-70
2024/04/07 11:44:31;;;;;;;5.97;2.25;;;25.40;98.00;;;;;;5033694;28;20271;-70
2024/04/07 11:46:57;;;;;;;4.47;1.45;;;25.50;98.00;;;;;;5033814;28;20271;-70
2024/04/07 11:49:23;;;;;;;2.95;1.35;;;25.40;97.80;;;;;;5017976;28;20184;-71
2024/04/07 11:51:49;;;;;;;2.38;1.40;;;25.40;97.90;;;;;;5045736;28;20179;-70
2024/04/07 11:54:15;;;;;;;2.25;1.40;;;25.50;98.00;;;;;;5049034;28;20219;-72
2024/04/07 11:56:40;;;;;;;7.53;1.95;;;25.50;98.00;;;;;;5040783;28;20184;-73
2024/04/07 11:59:06;;;;;;;4.40;1.77;;;25.40;98.30;;;;;;5046306;28;20182;-71
2024/04/07 12:01:32;;;;;;;5.55;1.98;;;25.40;99.10;;;;;;5038051;28;20216;-70
2024/04/07 12:03:58;;;;;;;3.58;1.70;;;25.40;99.40;;;;;;5035908;28;20199;-71
2024/04/07 12:06:24;;;;;;;7.65;1.75;;;25.50;98.70;;;;;;5038604;28;20697;-71
2024/04/07 12:08:49;;;;;;;7.93;1.85;;;25.60;99.20;;;;;;5043793;28;20278;-71
2024/04/07 12:11:15;;;;;;;5.03;1.77;;;25.60;98.20;;;;;;5035958;28;20178;-70
2024/04/07 12:13:40;;;;;;;5.70;1.55;;;25.40;98.10;;;;;;5033491;28;20701;-69
2024/04/07 12:16:06;;;;;;;4.55;1.35;;;25.40;98.50;;;;;;5032702;28;20208;-71
2024/04/07 12:18:33;;;;;;;2.05;1.40;;;25.30;98.70;;;;;;5030989;28;20184;-71
2024/04/07 12:20:59;;;;;;;6.97;1.90;;;25.20;99.60;;;;;;5026081;28;20196;-70
2024/04/07 12:23:24;;;;;;;5.45;1.95;;;25.00;99.00;;;;;;5036803;28;20208;-72
2024/04/07 12:25:50;;;;;;;5.30;1.48;;;24.90;99.10;;;;;;5037646;28;20277;-70
2024/04/07 12:28:16;;;;;;;4.50;1.58;;;25.00;99.90;;;;;;5046253;28;20202;-71
2024/04/07 12:30:42;;;;;;;5.07;1.50;;;25.10;99.70;;;;;;5054594;28;20279;-71
2024/04/07 12:33:08;;;;;;;6.93;1.50;;;25.10;99.50;;;;;;5056232;28;20368;-71
2024/04/07 12:35:34;;;;;;;1.73;1.42;;;25.10;99.90;;;;;;5052613;28;20177;-73
2024/04/07 12:38:01;;;;;;;7.93;1.95;;;25.20;99.90;;;;;;5035332;28;20695;-71
2024/04/07 12:40:27;;;;;;;4.43;1.40;;;25.30;99.90;;;;;;5039550;28;20203;-72
2024/04/07 12:42:52;;;;;;;5.53;1.45;;;25.30;99.40;;;;;;5044551;28;20200;-71
2024/04/07 12:45:18;;;;;;;6.38;1.80;;;25.40;98.80;;;;;;5042442;28;20219;-71